sensor_id;sensor_type;location;lat;lon;timestamp;pressure;altitude;pressure_sealevel;temperature;humidity
13734;BME280;43298;52.560;13.508;2024-02-26T00:00:13;98088.16;;;1.69;100.00
13734;BME280;43298;52.560;13.508;2024-02-26T00:02:39;98087.09;;;1.56;100.00
13734;BME280;43298;52.560;13.508;2024-02-26T00:05:08;98085.00;;;1.47;100.00
13734;BME280;43298;52.560;13.508;2024-02-26T00:07:35;98091.44;;;1.37;100.00
13734;BME280;43298;52.560;13.508;2024-02-26T00:10:01;98098.53;;;1.31;100.00
13734;BME280;43298;52.560;13.508;2024-02-26T00:12:27;98096.22;;;1.26;100.00
13734;BME280;43298;52.560;13.508;2024-02-26T00:14:53;98094.00;;;1.19;100.00
13734;BME280;43298;52.560;13.508;2024-02-26T00:17:19;98100.19;;;1.13;100.00
13734;BME280;43298;52.560;13.508;2024-02-26T00:19:45;98094.72;;;1.04;100.00
13734;BME280;43298;52.560;13.508;2024-02-26T00:22:12;98090.47;;;1.04;100.00
13734;BME280;43298;52.560;13.508;2024-02-26T00:24:39;98081.53;;;1.14;100.00
13734;BME280;43298;52.560;13.508;2024-02-26T00:27:05;98080.94;;;1.26;100.00
13734;BME280;43298;52.560;13.508;2024-02-26T00:29:31;98070.81;;;1.25;100.00
13734;BME280;43298;52.560;13.508;2024-02-26T00:31:58;98069.91;;;1.26;100.00
13734;BME280;43298;52.560;13.508;2024-02-26T00:34:24;98067.03;;;1.33;100.00
13734;BME280;43298;52.560;13.508;2024-02-26T00:36:51;98068.53;;;1.37;100.00
13734;BME280;43298;52.560;13.508;2024-02-26T00:39:17;98073.47;;;1.40;100.00
13734;BME280;43298;52.560;13.508;2024-02-26T00:41:43;98061.34;;;1.45;100.00
13734;BME280;43298;52.560;13.508;2024-02-26T00:44:09;98059.28;;;1.53;100.00
13734;BME280;43298;52.560;13.508;2024-02-26T00:46:35;98054.00;;;1.56;100.00
13734;BME280;43298;52.560;13.508;2024-02-26T00:49:01;98058.78;;;1.45;100.00
13734;BME280;43298;52.560;13.508;2024-02-26T00:51:28;98054.91;;;1.38;100.00
13734;BME280;43298;52.560;13.508;2024-02-26T00:53:55;98064.75;;;1.27;100.00
13734;BME280;43298;52.560;13.508;2024-02-26T00:56:22;98064.25;;;1.21;100.00
13734;BME280;43298;52.560;13.508;2024-02-26T00:58:48;98058.53;;;1.16;100.00
13734;BME280;43298;52.560;13.508;2024-02-26T01:01:14;98063.00;;;1.11;100.00
13734;BME280;43298;52.560;13.508;2024-02-26T01:03:40;98067.44;;;1.07;100.00
13734;BME280;43298;52.560;13.508;2024-02-26T01:06:06;98061.13;;;0.97;100.00
13734;BME280;43298;52.560;13.508;2024-02-26T01:08:32;98060.66;;;0.89;100.00
13734;BME280;43298;52.560;13.508;2024-02-26T01:10:59;98065.25;;;0.81;100.00
13734;BME280;43298;52.560;13.508;2024-02-26T01:13:25;98061.31;;;0.74;100.00
13734;BME280;43298;52.560;13.508;2024-02-26T01:15:51;98064.31;;;0.65;100.00
13734;BME280;43298;52.560;13.508;2024-02-26T01:18:17;98059.22;;;0.65;100.00
13734;BME280;43298;52.560;13.508;2024-02-26T01:20:43;98047.88;;;0.72;100.00
13734;BME280;43298;52.560;13.508;2024-02-26T01:23:09;98052.19;;;0.70;100.00
13734;BME280;43298;52.560;13.508;2024-02-26T01:25:35;98054.53;;;0.75;100.00
13734;BME280;43298;52.560;13.508;2024-02-26T01:28:02;98059.47;;;0.78;100.00
13734;BME280;43298;52.560;13.508;2024-02-26T01:30:29;98058.38;;;0.65;100.00
13734;BME280;43298;52.560;13.508;2024-02-26T01:32:55;98057.84;;;0.58;100.00
13734;BME280;43298;52.560;13.508;2024-02-26T01:35:21;98063.38;;;0.48;100.00
13734;BME280;43298;52.560;13.508;2024-02-26T01:37:47;98067.03;;;0.42;100.00
13734;BME280;43298;52.560;13.508;2024-02-26T01:40:13;98065.19;;;0.46;100.00
13734;BME280;43298;52.560;13.508;2024-02-26T01:42:44;98055.09;;;0.44;100.00
13734;BME280;43298;52.560;13.508;2024-02-26T01:45:15;98059.31;;;0.44;100.00
13734;BME280;43298;52.560;13.508;2024-02-26T01:47:48;98054.53;;;0.38;100.00
13734;BME280;43298;52.560;13.508;2024-02-26T01:50:15;98054.72;;;0.33;100.00
13734;BME280;43298;52.560;13.508;2024-02-26T01:52:41;98052.38;;;0.29;100.00
13734;BME280;43298;52.560;13.508;2024-02-26T01:55:08;98053.22;;;0.29;100.00
13734;BME280;43298;52.560;13.508;2024-02-26T01:57:34;98055.47;;;0.35;100.00
13734;BME280;43298;52.560;13.508;2024-02-26T02:00:00;98058.19;;;0.32;100.00
13734;BME280;43298;52.560;13.508;2024-02-26T02:02:27;98056.38;;;0.34;100.00
13734;BME280;43298;52.560;13.508;2024-02-26T02:04:53;98052.31;;;0.30;100.00
13734;BME280;43298;52.560;13.508;2024-02-26T02:07:20;98055.00;;;0.27;100.00
13734;BME280;43298;52.560;13.508;2024-02-26T02:09:47;98057.47;;;0.29;100.00
13734;BME280;43298;52.560;13.508;2024-02-26T02:12:13;98056.78;;;0.25;100.00
13734;BME280;43298;52.560;13.508;2024-02-26T02:14:40;98053.47;;;0.23;100.00
13734;BME280;43298;52.560;13.508;2024-02-26T02:17:07;98060.25;;;0.23;100.00
13734;BME280;43298;52.560;13.508;2024-02-26T02:19:33;98056.84;;;0.24;100.00
13734;BME280;43298;52.560;13.508;2024-02-26T02:21:59;98055.00;;;0.27;100.00
13734;BME280;43298;52.560;13.508;2024-02-26T02:24:25;98053.63;;;0.39;100.00
13734;BME280;43298;52.560;13.508;2024-02-26T02:26:52;98043.94;;;0.47;100.00
13734;BME280;43298;52.560;13.508;2024-02-26T02:29:18;98045.13;;;0.58;100.00
13734;BME280;43298;52.560;13.508;2024-02-26T02:31:44;98040.31;;;0.52;100.00
13734;BME280;43298;52.560;13.508;2024-02-26T02:34:10;98038.81;;;0.48;100.00
13734;BME280;43298;52.560;13.508;2024-02-26T02:36:49;98043.75;;;0.51;100.00
13734;BME280;43298;52.560;13.508;2024-02-26T02:39:17;98038.03;;;0.46;100.00
13734;BME280;43298;52.560;13.508;2024-02-26T02:41:43;98041.41;;;0.47;100.00
13734;BME280;43298;52.560;13.508;2024-02-26T02:44:09;98041.34;;;0.48;100.00
13734;BME280;43298;52.560;13.508;2024-02-26T02:46:36;98040.09;;;0.57;100.00
13734;BME280;43298;52.560;13.508;2024-02-26T02:49:02;98033.09;;;0.62;100.00
13734;BME280;43298;52.560;13.508;2024-02-26T02:51:28;98034.97;;;0.58;100.00
13734;BME280;43298;52.560;13.508;2024-02-26T02:53:54;98028.91;;;0.61;100.00
13734;BME280;43298;52.560;13.508;2024-02-26T02:56:20;98030.78;;;0.57;100.00
13734;BME280;43298;52.560;13.508;2024-02-26T02:58:46;98036.81;;;0.55;100.00
13734;BME280;43298;52.560;13.508;2024-02-26T03:01:13;98047.41;;;0.46;100.00
13734;BME280;43298;52.560;13.508;2024-02-26T03:03:40;98039.91;;;0.43;100.00
13734;BME280;43298;52.560;13.508;2024-02-26T03:06:06;98048.50;;;0.40;100.00
13734;BME280;43298;52.560;13.508;2024-02-26T03:08:32;98045.03;;;0.41;100.00
13734;BME280;43298;52.560;13.508;2024-02-26T03:10:59;98043.13;;;0.46;100.00
13734;BME280;43298;52.560;13.508;2024-02-26T03:13:25;98040.03;;;0.40;100.00
13734;BME280;43298;52.560;13.508;2024-02-26T03:15:51;98037.63;;;0.37;100.00
13734;BME280;43298;52.560;13.508;2024-02-26T03:18:17;98041.97;;;0.35;100.00
13734;BME280;43298;52.560;13.508;2024-02-26T03:20:44;98042.16;;;0.30;100.00
13734;BME280;43298;52.560;13.508;2024-02-26T03:23:10;98034.72;;;0.26;100.00
13734;BME280;43298;52.560;13.508;2024-02-26T03:25:38;98039.94;;;0.23;100.00
13734;BME280;43298;52.560;13.508;2024-02-26T03:28:05;98036.31;;;0.28;100.00
13734;BME280;43298;52.560;13.508;2024-02-26T03:30:31;98038.16;;;0.25;100.00
13734;BME280;43298;52.560;13.508;2024-02-26T03:32:57;98038.53;;;0.36;100.00
13734;BME280;43298;52.560;13.508;2024-02-26T03:35:23;98035.97;;;0.36;100.00
13734;BME280;43298;52.560;13.508;2024-02-26T03:37:49;98027.66;;;0.51;100.00
13734;BME280;43298;52.560;13.508;2024-02-26T03:40:17;98014.44;;;0.63;100.00
13734;BME280;43298;52.560;13.508;2024-02-26T03:42:45;98013.16;;;0.71;100.00
13734;BME280;43298;52.560;13.508;2024-02-26T03:45:11;97993.72;;;1.06;100.00
13734;BME280;43298;52.560;13.508;2024-02-26T03:47:41;97984.69;;;1.34;100.00
13734;BME280;43298;52.560;13.508;2024-02-26T03:50:07;97992.44;;;1.31;100.00
13734;BME280;43298;52.560;13.508;2024-02-26T03:52:34;98003.91;;;1.06;100.00
13734;BME280;43298;52.560;13.508;2024-02-26T03:55:00;98008.69;;;0.95;100.00
13734;BME280;43298;52.560;13.508;2024-02-26T03:57:26;98014.69;;;0.92;100.00
13734;BME280;43298;52.560;13.508;2024-02-26T03:59:53;98017.63;;;0.85;100.00
13734;BME280;43298;52.560;13.508;2024-02-26T04:02:19;98020.50;;;0.77;100.00
13734;BME280;43298;52.560;13.508;2024-02-26T04:04:46;98023.69;;;0.64;100.00
13734;BME280;43298;52.560;13.508;2024-02-26T04:07:12;98027.34;;;0.58;100.00
13734;BME280;43298;52.560;13.508;2024-02-26T04:09:39;98030.78;;;0.57;100.00
13734;BME280;43298;52.560;13.508;2024-02-26T04:12:05;98034.63;;;0.47;100.00
13734;BME280;43298;52.560;13.508;2024-02-26T04:14:32;98035.78;;;0.40;100.00
13734;BME280;43298;52.560;13.508;2024-02-26T04:16:58;98042.03;;;0.33;100.00
13734;BME280;43298;52.560;13.508;2024-02-26T04:19:24;98047.25;;;0.30;100.00
13734;BME280;43298;52.560;13.508;2024-02-26T04:21:50;98057.47;;;0.29;100.00
13734;BME280;43298;52.560;13.508;2024-02-26T04:24:16;98059.16;;;0.28;100.00
13734;BME280;43298;52.560;13.508;2024-02-26T04:26:42;98065.28;;;0.24;100.00
13734;BME280;43298;52.560;13.508;2024-02-26T04:29:08;98069.75;;;0.19;100.00
13734;BME280;43298;52.560;13.508;2024-02-26T04:31:35;98075.84;;;0.15;100.00
13734;BME280;43298;52.560;13.508;2024-02-26T04:34:03;98074.34;;;0.11;100.00
13734;BME280;43298;52.560;13.508;2024-02-26T04:36:30;98071.75;;;0.13;100.00
13734;BME280;43298;52.560;13.508;2024-02-26T04:38:56;98072.53;;;0.13;100.00
13734;BME280;43298;52.560;13.508;2024-02-26T04:41:22;98083.03;;;0.06;100.00
13734;BME280;43298;52.560;13.508;2024-02-26T04:43:48;98088.38;;;-0.01;100.00
13734;BME280;43298;52.560;13.508;2024-02-26T04:46:15;98090.13;;;-0.03;100.00
13734;BME280;43298;52.560;13.508;2024-02-26T04:48:41;98098.59;;;-0.02;100.00
13734;BME280;43298;52.560;13.508;2024-02-26T04:51:12;98096.66;;;0.03;100.00
13734;BME280;43298;52.560;13.508;2024-02-26T04:53:38;98096.66;;;0.03;100.00
13734;BME280;43298;52.560;13.508;2024-02-26T04:56:05;98106.97;;;0.00;100.00
13734;BME280;43298;52.560;13.508;2024-02-26T04:58:31;98102.84;;;-0.03;100.00
13734;BME280;43298;52.560;13.508;2024-02-26T05:00:57;98101.75;;;0.03;100.00
13734;BME280;43298;52.560;13.508;2024-02-26T05:03:23;98106.16;;;-0.01;100.00
13734;BME280;43298;52.560;13.508;2024-02-26T05:05:49;98097.31;;;0.08;100.00
13734;BME280;43298;52.560;13.508;2024-02-26T05:08:15;98101.38;;;0.12;100.00
13734;BME280;43298;52.560;13.508;2024-02-26T05:10:41;98077.41;;;0.56;100.00
13734;BME280;43298;52.560;13.508;2024-02-26T05:13:09;98057.13;;;0.92;100.00
13734;BME280;43298;52.560;13.508;2024-02-26T05:15:36;98028.38;;;1.42;100.00
13734;BME280;43298;52.560;13.508;2024-02-26T05:18:02;98016.66;;;1.74;100.00
13734;BME280;43298;52.560;13.508;2024-02-26T05:20:29;98016.88;;;1.69;100.00
13734;BME280;43298;52.560;13.508;2024-02-26T05:22:55;98036.34;;;1.53;100.00
13734;BME280;43298;52.560;13.508;2024-02-26T05:25:21;98045.47;;;1.40;100.00
13734;BME280;43298;52.560;13.508;2024-02-26T05:27:47;98044.47;;;1.26;100.00
13734;BME280;43298;52.560;13.508;2024-02-26T05:30:14;98056.94;;;1.13;100.00
13734;BME280;43298;52.560;13.508;2024-02-26T05:32:40;98065.31;;;0.98;100.00
13734;BME280;43298;52.560;13.508;2024-02-26T05:35:07;98057.00;;;0.95;100.00
13734;BME280;43298;52.560;13.508;2024-02-26T05:37:33;98032.22;;;0.98;100.00
13734;BME280;43298;52.560;13.508;2024-02-26T05:39:59;98028.06;;;0.97;100.00
13734;BME280;43298;52.560;13.508;2024-02-26T05:42:25;98037.84;;;0.88;100.00
13734;BME280;43298;52.560;13.508;2024-02-26T05:44:51;98032.31;;;0.78;100.00
13734;BME280;43298;52.560;13.508;2024-02-26T05:47:18;98038.75;;;0.68;100.00
13734;BME280;43298;52.560;13.508;2024-02-26T05:49:44;98052.19;;;0.70;100.00
13734;BME280;43298;52.560;13.508;2024-02-26T05:52:10;98035.53;;;1.00;100.00
13734;BME280;43298;52.560;13.508;2024-02-26T05:54:36;98043.44;;;0.94;100.00
13734;BME280;43298;52.560;13.508;2024-02-26T05:57:02;98044.13;;;0.98;100.00
13734;BME280;43298;52.560;13.508;2024-02-26T05:59:29;98025.00;;;1.08;100.00
13734;BME280;43298;52.560;13.508;2024-02-26T06:01:55;98028.53;;;1.22;100.00
13734;BME280;43298;52.560;13.508;2024-02-26T06:04:21;98026.81;;;1.23;100.00
13734;BME280;43298;52.560;13.508;2024-02-26T06:06:47;98030.53;;;1.16;100.00
13734;BME280;43298;52.560;13.508;2024-02-26T06:09:13;98043.69;;;1.07;100.00
13734;BME280;43298;52.560;13.508;2024-02-26T06:11:40;98053.56;;;0.96;100.00
13734;BME280;43298;52.560;13.508;2024-02-26T06:14:06;98052.06;;;0.92;100.00
13734;BME280;43298;52.560;13.508;2024-02-26T06:16:32;98053.03;;;0.89;100.00
13734;BME280;43298;52.560;13.508;2024-02-26T06:18:59;98051.00;;;0.96;100.00
13734;BME280;43298;52.560;13.508;2024-02-26T06:21:26;98049.56;;;1.09;100.00
13734;BME280;43298;52.560;13.508;2024-02-26T06:23:52;98027.38;;;1.46;100.00
13734;BME280;43298;52.560;13.508;2024-02-26T06:26:18;98008.09;;;1.75;100.00
13734;BME280;43298;52.560;13.508;2024-02-26T06:28:44;97998.00;;;2.06;100.00
13734;BME280;43298;52.560;13.508;2024-02-26T06:31:10;97986.50;;;2.14;100.00
13734;BME280;43298;52.560;13.508;2024-02-26T06:33:36;97990.63;;;2.17;100.00
13734;BME280;43298;52.560;13.508;2024-02-26T06:36:03;97991.53;;;2.16;100.00
13734;BME280;43298;52.560;13.508;2024-02-26T06:38:30;97994.25;;;2.13;100.00
13734;BME280;43298;52.560;13.508;2024-02-26T06:40:56;97992.25;;;2.18;100.00
13734;BME280;43298;52.560;13.508;2024-02-26T06:43:22;97994.59;;;2.22;100.00
13734;BME280;43298;52.560;13.508;2024-02-26T06:45:48;97984.88;;;2.29;100.00
13734;BME280;43298;52.560;13.508;2024-02-26T06:48:14;97986.88;;;2.39;100.00
13734;BME280;43298;52.560;13.508;2024-02-26T06:50:41;97980.63;;;2.60;100.00
13734;BME280;43298;52.560;13.508;2024-02-26T06:53:07;97975.41;;;2.77;100.00
13734;BME280;43298;52.560;13.508;2024-02-26T06:55:34;97974.41;;;2.95;100.00
13734;BME280;43298;52.560;13.508;2024-02-26T06:58:00;97968.94;;;3.17;100.00
13734;BME280;43298;52.560;13.508;2024-02-26T07:00:26;97961.97;;;3.35;100.00
13734;BME280;43298;52.560;13.508;2024-02-26T07:02:52;97947.50;;;3.49;100.00
13734;BME280;43298;52.560;13.508;2024-02-26T07:05:18;97952.19;;;3.57;100.00
13734;BME280;43298;52.560;13.508;2024-02-26T07:07:45;97958.50;;;3.65;100.00
13734;BME280;43298;52.560;13.508;2024-02-26T07:10:11;97960.56;;;3.73;100.00
13734;BME280;43298;52.560;13.508;2024-02-26T07:12:38;97972.44;;;3.74;100.00
13734;BME280;43298;52.560;13.508;2024-02-26T07:15:05;97975.22;;;3.85;100.00
13734;BME280;43298;52.560;13.508;2024-02-26T07:17:33;97968.34;;;3.99;100.00
13734;BME280;43298;52.560;13.508;2024-02-26T07:20:03;97965.19;;;4.10;100.00
13734;BME280;43298;52.560;13.508;2024-02-26T07:22:30;97960.94;;;4.23;100.00
13734;BME280;43298;52.560;13.508;2024-02-26T07:24:57;97968.06;;;4.32;100.00
13734;BME280;43298;52.560;13.508;2024-02-26T07:27:23;97959.63;;;4.58;100.00
13734;BME280;43298;52.560;13.508;2024-02-26T07:29:49;97969.81;;;4.72;100.00
13734;BME280;43298;52.560;13.508;2024-02-26T07:32:15;97956.97;;;4.86;100.00
13734;BME280;43298;52.560;13.508;2024-02-26T07:34:41;97969.69;;;4.87;100.00
13734;BME280;43298;52.560;13.508;2024-02-26T07:37:11;97970.53;;;5.00;100.00
13734;BME280;43298;52.560;13.508;2024-02-26T07:39:37;97984.94;;;4.89;100.00
13734;BME280;43298;52.560;13.508;2024-02-26T07:42:03;97993.06;;;4.95;100.00
13734;BME280;43298;52.560;13.508;2024-02-26T07:44:29;97996.03;;;5.02;100.00
13734;BME280;43298;52.560;13.508;2024-02-26T07:46:55;98012.34;;;5.01;100.00
13734;BME280;43298;52.560;13.508;2024-02-26T07:49:20;98021.88;;;4.99;100.00
13734;BME280;43298;52.560;13.508;2024-02-26T07:51:46;98026.72;;;5.16;100.00
13734;BME280;43298;52.560;13.508;2024-02-26T07:54:12;98022.47;;;5.29;100.00
13734;BME280;43298;52.560;13.508;2024-02-26T07:56:38;98030.09;;;5.43;100.00
13734;BME280;43298;52.560;13.508;2024-02-26T07:59:03;98044.47;;;5.45;100.00
13734;BME280;43298;52.560;13.508;2024-02-26T08:01:29;98051.59;;;5.67;100.00
13734;BME280;43298;52.560;13.508;2024-02-26T08:03:55;98051.06;;;6.01;100.00
13734;BME280;43298;52.560;13.508;2024-02-26T08:06:22;98065.41;;;6.03;100.00
13734;BME280;43298;52.560;13.508;2024-02-26T08:08:48;98071.19;;;6.19;100.00
13734;BME280;43298;52.560;13.508;2024-02-26T08:11:17;98078.97;;;6.31;100.00
13734;BME280;43298;52.560;13.508;2024-02-26T08:13:43;98097.69;;;6.33;100.00
13734;BME280;43298;52.560;13.508;2024-02-26T08:16:08;98120.44;;;6.37;100.00
13734;BME280;43298;52.560;13.508;2024-02-26T08:18:34;98140.06;;;6.26;100.00
13734;BME280;43298;52.560;13.508;2024-02-26T08:21:00;98174.28;;;6.12;100.00
13734;BME280;43298;52.560;13.508;2024-02-26T08:23:26;98191.75;;;6.07;100.00
13734;BME280;43298;52.560;13.508;2024-02-26T08:25:52;98210.03;;;6.15;100.00
13734;BME280;43298;52.560;13.508;2024-02-26T08:28:18;98226.63;;;6.09;100.00
13734;BME280;43298;52.560;13.508;2024-02-26T08:30:44;98233.66;;;6.20;100.00
13734;BME280;43298;52.560;13.508;2024-02-26T08:33:10;98241.44;;;6.18;100.00
13734;BME280;43298;52.560;13.508;2024-02-26T08:35:36;98251.94;;;6.28;100.00
13734;BME280;43298;52.560;13.508;2024-02-26T08:38:02;98266.44;;;6.42;100.00
13734;BME280;43298;52.560;13.508;2024-02-26T08:40:29;98261.16;;;6.70;100.00
13734;BME280;43298;52.560;13.508;2024-02-26T08:42:55;98266.34;;;6.95;100.00
13734;BME280;43298;52.560;13.508;2024-02-26T08:45:21;98277.75;;;7.28;100.00
13734;BME280;43298;52.560;13.508;2024-02-26T08:47:47;98267.81;;;7.72;100.00
13734;BME280;43298;52.560;13.508;2024-02-26T08:50:14;98285.25;;;7.92;100.00
13734;BME280;43298;52.560;13.508;2024-02-26T08:52:40;98292.91;;;7.81;100.00
13734;BME280;43298;52.560;13.508;2024-02-26T08:55:07;98284.91;;;7.73;100.00
13734;BME280;43298;52.560;13.508;2024-02-26T08:57:34;98247.91;;;7.87;100.00
13734;BME280;43298;52.560;13.508;2024-02-26T09:00:01;98217.25;;;8.07;100.00
13734;BME280;43298;52.560;13.508;2024-02-26T09:02:27;98184.56;;;8.20;100.00
13734;BME280;43298;52.560;13.508;2024-02-26T09:04:52;98179.47;;;8.31;100.00
13734;BME280;43298;52.560;13.508;2024-02-26T09:07:21;98178.41;;;8.23;100.00
13734;BME280;43298;52.560;13.508;2024-02-26T09:09:47;98183.44;;;8.24;100.00
13734;BME280;43298;52.560;13.508;2024-02-26T09:12:13;98193.19;;;8.32;100.00
13734;BME280;43298;52.560;13.508;2024-02-26T09:14:38;98209.47;;;8.43;100.00
13734;BME280;43298;52.560;13.508;2024-02-26T09:17:04;98216.09;;;8.58;100.00
13734;BME280;43298;52.560;13.508;2024-02-26T09:19:31;98233.91;;;8.72;100.00
13734;BME280;43298;52.560;13.508;2024-02-26T09:21:57;98259.84;;;8.82;100.00
13734;BME280;43298;52.560;13.508;2024-02-26T09:24:24;98280.41;;;8.71;100.00
13734;BME280;43298;52.560;13.508;2024-02-26T09:26:50;98310.69;;;8.56;100.00
13734;BME280;43298;52.560;13.508;2024-02-26T09:29:16;98326.09;;;8.80;100.00
13734;BME280;43298;52.560;13.508;2024-02-26T09:31:42;98341.78;;;8.77;100.00
13734;BME280;43298;52.560;13.508;2024-02-26T09:34:09;98359.66;;;8.91;100.00
13734;BME280;43298;52.560;13.508;2024-02-26T09:36:35;98367.09;;;9.06;100.00
13734;BME280;43298;52.560;13.508;2024-02-26T09:39:00;98404.78;;;8.96;100.00
13734;BME280;43298;52.560;13.508;2024-02-26T09:41:28;98410.31;;;9.03;100.00
13734;BME280;43298;52.560;13.508;2024-02-26T09:43:58;98427.47;;;9.15;100.00
13734;BME280;43298;52.560;13.508;2024-02-26T09:46:27;98442.16;;;9.25;100.00
13734;BME280;43298;52.560;13.508;2024-02-26T09:48:54;98457.44;;;9.40;100.00
13734;BME280;43298;52.560;13.508;2024-02-26T09:51:23;98482.88;;;9.33;100.00
13734;BME280;43298;52.560;13.508;2024-02-26T09:53:52;98489.72;;;9.56;100.00
13734;BME280;43298;52.560;13.508;2024-02-26T09:56:19;98494.88;;;9.80;100.00
13734;BME280;43298;52.560;13.508;2024-02-26T09:58:45;98513.25;;;10.10;100.00
13734;BME280;43298;52.560;13.508;2024-02-26T10:01:17;98530.22;;;10.58;100.00
13734;BME280;43298;52.560;13.508;2024-02-26T10:03:44;98573.53;;;10.32;100.00
13734;BME280;43298;52.560;13.508;2024-02-26T10:06:13;98594.94;;;10.78;100.00
13734;BME280;43298;52.560;13.508;2024-02-26T10:08:40;98634.91;;;10.96;100.00
13734;BME280;43298;52.560;13.508;2024-02-26T10:11:09;98680.41;;;11.10;100.00
13734;BME280;43298;52.560;13.508;2024-02-26T10:13:36;98720.94;;;11.09;100.00
13734;BME280;43298;52.560;13.508;2024-02-26T10:16:03;98758.44;;;10.93;100.00
13734;BME280;43298;52.560;13.508;2024-02-26T10:18:52;98761.09;;;11.26;100.00
13734;BME280;43298;52.560;13.508;2024-02-26T10:21:20;98765.09;;;11.52;100.00
13734;BME280;43298;52.560;13.508;2024-02-26T10:23:48;98805.66;;;11.51;100.00
13734;BME280;43298;52.560;13.508;2024-02-26T10:26:14;98816.66;;;11.88;100.00
13734;BME280;43298;52.560;13.508;2024-02-26T10:28:45;98840.03;;;12.19;100.00
13734;BME280;43298;52.560;13.508;2024-02-26T10:31:13;98884.09;;;11.75;100.00
13734;BME280;43298;52.560;13.508;2024-02-26T10:33:40;98870.22;;;11.87;100.00
13734;BME280;43298;52.560;13.508;2024-02-26T10:36:07;98850.78;;;12.15;100.00
13734;BME280;43298;52.560;13.508;2024-02-26T10:38:34;98854.75;;;12.30;100.00
13734;BME280;43298;52.560;13.508;2024-02-26T10:41:06;98867.03;;;12.17;100.00
13734;BME280;43298;52.560;13.508;2024-02-26T10:43:32;98876.88;;;12.45;100.00
13734;BME280;43298;52.560;13.508;2024-02-26T10:45:58;98923.78;;;12.31;100.00
13734;BME280;43298;52.560;13.508;2024-02-26T10:48:24;98954.91;;;12.31;100.00
13734;BME280;43298;52.560;13.508;2024-02-26T10:50:50;98965.16;;;12.10;100.00
13734;BME280;43298;52.560;13.508;2024-02-26T10:53:23;98969.50;;;12.21;100.00
13734;BME280;43298;52.560;13.508;2024-02-26T10:55:57;98988.81;;;12.39;100.00
13734;BME280;43298;52.560;13.508;2024-02-26T10:58:25;99010.28;;;12.52;100.00
13734;BME280;43298;52.560;13.508;2024-02-26T11:00:52;99050.13;;;12.40;100.00
13734;BME280;43298;52.560;13.508;2024-02-26T11:03:19;99070.53;;;12.10;100.00
13734;BME280;43298;52.560;13.508;2024-02-26T11:05:49;99089.03;;;11.82;100.00
13734;BME280;43298;52.560;13.508;2024-02-26T11:08:18;99069.78;;;11.86;100.00
13734;BME280;43298;52.560;13.508;2024-02-26T11:10:47;99068.09;;;11.85;100.00
13734;BME280;43298;52.560;13.508;2024-02-26T11:13:17;99060.13;;;11.88;100.00
13734;BME280;43298;52.560;13.508;2024-02-26T11:15:48;99054.00;;;11.89;100.00
13734;BME280;43298;52.560;13.508;2024-02-26T11:18:19;99051.09;;;12.04;100.00
13734;BME280;43298;52.560;13.508;2024-02-26T11:20:46;99047.34;;;12.08;100.00
13734;BME280;43298;52.560;13.508;2024-02-26T11:23:13;99053.78;;;12.03;100.00
13734;BME280;43298;52.560;13.508;2024-02-26T11:25:39;99038.78;;;12.19;100.00
13734;BME280;43298;52.560;13.508;2024-02-26T11:28:17;99044.44;;;12.46;100.00
13734;BME280;43298;52.560;13.508;2024-02-26T11:30:47;99073.44;;;12.40;100.00
13734;BME280;43298;52.560;13.508;2024-02-26T11:33:14;99070.75;;;12.64;100.00
13734;BME280;43298;52.560;13.508;2024-02-26T11:35:41;99102.72;;;12.75;100.00
13734;BME280;43298;52.560;13.508;2024-02-26T11:38:07;99094.69;;;13.22;100.00
13734;BME280;43298;52.560;13.508;2024-02-26T11:40:38;99127.94;;;12.73;100.00
13734;BME280;43298;52.560;13.508;2024-02-26T11:43:06;99106.75;;;13.12;100.00
13734;BME280;43298;52.560;13.508;2024-02-26T11:48:15;99133.69;;;12.77;100.00
13734;BME280;43298;52.560;13.508;2024-02-26T11:50:48;99110.00;;;12.70;100.00
13734;BME280;43298;52.560;13.508;2024-02-26T11:53:27;99103.28;;;12.90;100.00
13734;BME280;43298;52.560;13.508;2024-02-26T11:58:45;99123.16;;;13.13;100.00
13734;BME280;43298;52.560;13.508;2024-02-26T12:04:26;99153.91;;;13.28;100.00
13734;BME280;43298;52.560;13.508;2024-02-26T12:07:01;99175.97;;;13.23;100.00
13734;BME280;43298;52.560;13.508;2024-02-26T12:09:41;99215.09;;;12.98;100.00
13734;BME280;43298;52.560;13.508;2024-02-26T12:12:09;99209.31;;;12.94;100.00
13734;BME280;43298;52.560;13.508;2024-02-26T12:14:39;99199.88;;;12.82;100.00
13734;BME280;43298;52.560;13.508;2024-02-26T12:17:05;99195.63;;;12.92;100.00
13734;BME280;43298;52.560;13.508;2024-02-26T12:19:37;99181.06;;;13.13;100.00
13734;BME280;43298;52.560;13.508;2024-02-26T12:22:04;99210.78;;;13.20;100.00
13734;BME280;43298;52.560;13.508;2024-02-26T12:24:32;99238.88;;;13.04;100.00
13734;BME280;43298;52.560;13.508;2024-02-26T12:26:57;99261.56;;;12.90;100.00
13734;BME280;43298;52.560;13.508;2024-02-26T12:29:23;99278.75;;;13.14;100.00
13734;BME280;43298;52.560;13.508;2024-02-26T12:31:49;99306.34;;;13.15;100.00
13734;BME280;43298;52.560;13.508;2024-02-26T12:34:15;99336.88;;;13.12;100.00
13734;BME280;43298;52.560;13.508;2024-02-26T12:36:42;99333.88;;;13.29;100.00
13734;BME280;43298;52.560;13.508;2024-02-26T12:39:08;99347.97;;;13.59;100.00
13734;BME280;43298;52.560;13.508;2024-02-26T12:41:35;99371.75;;;13.77;100.00
13734;BME280;43298;52.560;13.508;2024-02-26T12:44:02;99421.22;;;13.75;100.00
13734;BME280;43298;52.560;13.508;2024-02-26T12:46:27;99414.63;;;13.93;100.00
13734;BME280;43298;52.560;13.508;2024-02-26T12:48:56;99430.72;;;14.42;100.00
13734;BME280;43298;52.560;13.508;2024-02-26T12:51:26;99487.13;;;14.42;100.00
13734;BME280;43298;52.560;13.508;2024-02-26T12:53:53;99506.97;;;14.54;100.00